createdAt,value
2023-04-11T00:00:59.048Z,24.80
2023-04-11T00:03:27.821Z,24.80
2023-04-11T00:05:56.281Z,32.20
2023-04-11T00:08:24.351Z,24.00
2023-04-11T00:10:52.455Z,23.40
2023-04-11T00:13:21.336Z,27.47
2023-04-11T00:15:49.275Z,27.37
2023-04-11T00:18:18.662Z,29.97
2023-04-11T00:20:46.670Z,28.77
2023-04-11T00:23:14.793Z,27.10
2023-04-11T00:25:42.934Z,29.63
2023-04-11T00:28:11.469Z,28.27
2023-04-11T00:30:39.752Z,33.60
2023-04-11T00:33:07.834Z,25.53
2023-04-11T00:35:39.363Z,28.60
2023-04-11T00:38:07.399Z,27.80
2023-04-11T00:40:35.426Z,23.83
2023-04-11T00:43:03.378Z,26.27
2023-04-11T00:45:31.548Z,24.93
2023-04-11T00:47:59.794Z,23.27
2023-04-11T00:50:28.066Z,22.40
2023-04-11T00:52:58.972Z,27.90
2023-04-11T00:55:28.396Z,31.03
2023-04-11T00:57:56.430Z,37.50
2023-04-11T01:00:25.094Z,51.13
2023-04-11T01:02:53.504Z,27.13
2023-04-11T01:05:21.952Z,22.53
2023-04-11T01:07:52.419Z,26.63
2023-04-11T01:10:22.699Z,28.63
2023-04-11T01:12:51.733Z,27.67
2023-04-11T01:15:19.797Z,28.43
2023-04-11T01:17:48.448Z,29.77
2023-04-11T01:20:16.495Z,28.23
2023-04-11T01:22:44.877Z,28.30
2023-04-11T01:25:15.911Z,33.63
2023-04-11T01:27:44.872Z,29.70
2023-04-11T01:30:13.477Z,49.27
2023-04-11T01:32:41.635Z,36.70
2023-04-11T01:35:11.026Z,30.10
2023-04-11T01:37:39.232Z,27.53
2023-04-11T01:40:08.729Z,25.73
2023-04-11T01:42:39.557Z,28.30
2023-04-11T01:45:08.770Z,30.77
2023-04-11T01:47:37.787Z,29.37
2023-04-11T01:50:06.938Z,30.30
2023-04-11T01:52:34.964Z,30.00
2023-04-11T01:55:03.102Z,30.00
2023-04-11T01:57:31.173Z,26.77
2023-04-11T02:00:00.638Z,27.70
2023-04-11T02:02:28.807Z,30.47
2023-04-11T02:04:56.916Z,25.00
2023-04-11T02:07:24.926Z,29.27
2023-04-11T02:09:52.922Z,30.97
2023-04-11T02:12:20.936Z,29.40
2023-04-11T02:14:49.744Z,27.20
2023-04-11T02:17:20.519Z,27.00
2023-04-11T02:19:48.570Z,29.90
2023-04-11T02:22:17.248Z,29.57
2023-04-11T02:24:46.444Z,34.83
2023-04-11T02:27:14.571Z,29.20
2023-04-11T02:29:42.543Z,31.27
2023-04-11T02:32:10.686Z,28.20
2023-04-11T02:34:41.285Z,30.10
2023-04-11T02:37:10.165Z,32.50
2023-04-11T02:39:38.111Z,33.73
2023-04-11T02:42:06.309Z,24.00
2023-04-11T02:44:34.400Z,24.30
2023-04-11T02:47:02.441Z,35.40
2023-04-11T02:49:30.459Z,24.53
2023-04-11T02:51:59.784Z,35.23
2023-04-11T02:54:27.760Z,33.60
2023-04-11T02:56:56.603Z,31.30
2023-04-11T02:59:24.602Z,28.47
2023-04-11T03:01:58.467Z,24.17
2023-04-11T03:04:26.864Z,30.83
2023-04-11T03:06:55.250Z,34.90
2023-04-11T03:09:24.721Z,33.20
2023-04-11T03:11:52.816Z,28.20
2023-04-11T03:14:20.749Z,30.83
2023-04-11T03:16:48.722Z,27.70
2023-04-11T03:19:16.671Z,33.30
2023-04-11T03:21:44.629Z,33.13
2023-04-11T03:24:13.286Z,31.60
2023-04-11T03:26:42.615Z,34.33
2023-04-11T03:29:10.577Z,30.70
2023-04-11T03:31:38.879Z,27.37
2023-04-11T03:34:07.318Z,31.57
2023-04-11T03:36:35.420Z,30.70
2023-04-11T03:39:03.998Z,28.43
2023-04-11T03:41:32.100Z,32.43
2023-04-11T03:44:01.645Z,27.20
2023-04-11T03:46:30.559Z,27.00
2023-04-11T03:48:58.770Z,31.43
2023-04-11T03:51:27.637Z,27.73
2023-04-11T03:53:55.582Z,32.80
2023-04-11T03:56:23.796Z,29.07
2023-04-11T03:58:51.945Z,36.63
2023-04-11T04:01:21.361Z,35.63
2023-04-11T04:03:49.697Z,32.23
2023-04-11T04:06:17.916Z,31.40
2023-04-11T04:08:45.985Z,37.30
2023-04-11T04:11:14.162Z,34.63
2023-04-11T04:13:42.225Z,35.77
2023-04-11T04:16:11.212Z,28.70
2023-04-11T04:18:41.822Z,37.27
2023-04-11T04:21:09.795Z,33.57
2023-04-11T04:23:39.191Z,30.80
2023-04-11T04:26:07.626Z,35.80
2023-04-11T04:28:35.681Z,35.10
2023-04-11T04:31:03.973Z,38.33
2023-04-11T04:33:33.070Z,33.23
2023-04-11T04:36:04.201Z,34.93
2023-04-11T04:38:32.913Z,31.03
2023-04-11T04:41:00.903Z,29.77
2023-04-11T04:43:32.269Z,45.97
2023-04-11T04:46:00.341Z,54.70
2023-04-11T04:48:28.325Z,39.57
2023-04-11T04:50:56.309Z,125.87
2023-04-11T04:53:25.806Z,35.23
2023-04-11T04:55:53.772Z,47.70
2023-04-11T04:58:21.721Z,38.27
2023-04-11T05:00:55.796Z,30.70
2023-04-11T05:03:24.446Z,32.20
2023-04-11T05:05:52.659Z,30.37
2023-04-11T05:08:21.609Z,28.13
2023-04-11T05:10:50.997Z,38.27
2023-04-11T05:13:19.002Z,27.23
2023-04-11T05:15:50.045Z,34.77
2023-04-11T05:18:18.191Z,33.83
2023-04-11T05:20:46.237Z,38.30
2023-04-11T05:23:14.304Z,42.97
2023-04-11T05:25:42.343Z,34.33
2023-04-11T05:28:11.725Z,29.23
2023-04-11T05:30:39.776Z,35.93
2023-04-11T05:33:07.811Z,48.60
2023-04-11T05:35:36.161Z,42.10
2023-04-11T05:38:04.165Z,33.70
2023-04-11T05:40:32.420Z,37.90
2023-04-11T05:43:00.533Z,37.03
2023-04-11T05:45:30.221Z,30.40
2023-04-11T05:47:58.276Z,35.83
2023-04-11T05:50:27.025Z,33.30
2023-04-11T05:52:55.046Z,42.40
2023-04-11T05:55:22.979Z,37.73
2023-04-11T05:57:51.123Z,35.60
2023-04-11T06:00:20.718Z,32.17
2023-04-11T06:02:50.851Z,32.20
2023-04-11T06:05:21.200Z,32.23
2023-04-11T06:07:49.779Z,35.57
2023-04-11T06:10:17.909Z,29.50
2023-04-11T06:12:46.000Z,31.43
2023-04-11T06:15:14.426Z,33.90
2023-04-11T06:17:42.430Z,35.27
2023-04-11T06:20:12.805Z,29.10
2023-04-11T06:22:40.874Z,31.30
2023-04-11T06:25:09.852Z,37.97
2023-04-11T06:27:37.923Z,31.37
2023-04-11T06:30:06.997Z,39.10
2023-04-11T06:32:35.035Z,32.90
2023-04-11T06:35:03.167Z,33.43
2023-04-11T06:37:32.562Z,27.83
2023-04-11T06:40:01.147Z,33.50
2023-04-11T06:42:29.686Z,31.10
2023-04-11T06:44:57.698Z,33.63
2023-04-11T06:47:25.946Z,42.27
2023-04-11T06:49:54.501Z,47.87
2023-04-11T06:52:22.576Z,58.23
2023-04-11T06:54:52.021Z,51.43
2023-04-11T06:57:19.930Z,48.23
2023-04-11T06:59:47.959Z,36.53
2023-04-11T07:02:17.047Z,36.13
2023-04-11T07:04:45.203Z,38.33
2023-04-11T07:07:13.305Z,33.87
2023-04-11T07:09:41.226Z,33.33
2023-04-11T07:12:10.655Z,33.73
2023-04-11T07:14:38.653Z,33.30
2023-04-11T07:17:06.610Z,33.40
2023-04-11T07:19:34.620Z,37.97
2023-04-11T07:22:03.046Z,34.27
2023-04-11T07:24:31.484Z,34.93
2023-04-11T07:27:01.622Z,35.23
2023-04-11T07:29:31.254Z,38.40
2023-04-11T07:31:59.261Z,34.33
2023-04-11T07:34:27.305Z,36.40
2023-04-11T07:37:00.943Z,42.70
2023-04-11T07:39:29.239Z,50.87
2023-04-11T07:41:57.227Z,46.43
2023-04-11T07:44:26.801Z,36.37
2023-04-11T07:46:56.671Z,45.70
2023-04-11T07:49:24.733Z,49.67
2023-04-11T07:51:52.666Z,43.03
2023-04-11T07:54:20.622Z,39.33
2023-04-11T07:56:48.568Z,48.67
2023-04-11T07:59:17.238Z,47.23
2023-04-11T08:01:45.237Z,46.70
2023-04-11T08:04:14.869Z,49.67
2023-04-11T08:06:43.441Z,41.47
2023-04-11T08:09:11.368Z,51.27
2023-04-11T08:11:40.940Z,40.67
2023-04-11T08:14:09.169Z,35.43
2023-04-11T08:16:37.252Z,42.23
2023-04-11T08:19:05.347Z,50.00
2023-04-11T08:21:34.678Z,60.00
2023-04-11T08:24:02.869Z,44.97
2023-04-11T08:26:30.922Z,53.47
2023-04-11T08:28:58.825Z,51.80
2023-04-11T08:31:28.461Z,53.57
2023-04-11T08:33:59.163Z,52.37
2023-04-11T08:36:28.755Z,55.03
2023-04-11T08:39:00.106Z,46.67
2023-04-11T08:41:31.361Z,50.10
2023-04-11T08:44:00.105Z,54.90
2023-04-11T08:46:28.656Z,54.93
2023-04-11T08:48:56.766Z,42.33
2023-04-11T08:51:26.822Z,56.80
2023-04-11T08:53:59.731Z,44.57
2023-04-11T08:56:27.898Z,45.20
2023-04-11T08:58:55.815Z,39.33
2023-04-11T09:01:29.049Z,44.63
2023-04-11T09:03:57.640Z,47.73
2023-04-11T09:06:26.613Z,50.30
2023-04-11T09:08:54.591Z,46.47
2023-04-11T09:11:23.965Z,62.77
2023-04-11T09:14:07.030Z,79.63
2023-04-11T09:16:35.384Z,75.20
2023-04-11T09:19:03.898Z,125.20
2023-04-11T09:21:32.460Z,62.27
2023-04-11T09:24:16.250Z,46.30
2023-04-11T09:26:45.750Z,49.60
2023-04-11T09:29:36.233Z,34.50
2023-04-11T09:32:04.983Z,26.40
2023-04-11T09:34:34.583Z,21.07
2023-04-11T09:37:03.201Z,19.30
2023-04-11T09:39:32.552Z,25.77
2023-04-11T09:42:03.175Z,20.00
2023-04-11T09:44:38.817Z,22.40
2023-04-11T09:47:07.180Z,16.47
2023-04-11T09:49:36.092Z,11.90
2023-04-11T09:52:04.809Z,15.83
2023-04-11T09:54:33.878Z,13.40
2023-04-11T09:57:06.296Z,15.50
2023-04-11T09:59:39.014Z,11.50
2023-04-11T10:02:07.098Z,13.87
2023-04-11T10:04:35.512Z,17.13
2023-04-11T10:07:10.434Z,12.50
2023-04-11T10:09:40.457Z,10.43
2023-04-11T10:12:10.023Z,10.37
2023-04-11T10:14:45.750Z,12.23
2023-04-11T10:17:22.090Z,9.97
2023-04-11T10:19:56.402Z,9.70
2023-04-11T10:23:00.098Z,8.23
2023-04-11T10:25:29.140Z,5.73
2023-04-11T10:28:03.732Z,5.57
2023-04-11T10:31:00.404Z,7.40
2023-04-11T10:33:28.785Z,8.03
2023-04-11T10:36:03.137Z,5.67
2023-04-11T10:38:48.657Z,4.80
2023-04-11T10:41:20.265Z,5.63
2023-04-11T10:43:50.597Z,5.20
2023-04-11T10:46:20.458Z,4.37
2023-04-11T10:48:59.569Z,4.57
2023-04-11T10:51:28.934Z,5.07
2023-04-11T10:53:59.276Z,4.67
2023-04-11T10:56:54.807Z,4.40
2023-04-11T11:00:01.940Z,4.00
2023-04-11T11:02:40.091Z,6.33
2023-04-11T11:05:19.549Z,5.33
2023-04-11T11:07:51.982Z,3.40
2023-04-11T11:10:40.253Z,5.10
2023-04-11T11:13:08.480Z,4.73
2023-04-11T11:15:38.585Z,5.10
2023-04-11T11:18:10.261Z,4.20
2023-04-11T11:20:38.830Z,6.27
2023-04-11T11:23:08.557Z,4.80
2023-04-11T11:25:37.039Z,4.90
2023-04-11T11:28:07.346Z,8.10
2023-04-11T11:30:38.023Z,3.37
2023-04-11T11:33:17.740Z,3.50
2023-04-11T11:35:53.266Z,5.27
2023-04-11T11:38:23.133Z,6.50
2023-04-11T11:40:51.639Z,4.97
2023-04-11T11:43:19.742Z,3.40
2023-04-11T11:46:08.711Z,2.80
2023-04-11T11:48:37.600Z,3.93
2023-04-11T11:51:06.103Z,6.70
2023-04-11T11:53:34.353Z,4.40
2023-04-11T11:56:14.404Z,3.90
2023-04-11T11:58:46.096Z,4.83
2023-04-11T12:01:17.127Z,3.90
2023-04-11T12:03:48.359Z,10.70
2023-04-11T12:06:17.221Z,12.47
2023-04-11T12:08:50.045Z,4.47
2023-04-11T12:11:18.370Z,15.67
2023-04-11T12:13:46.859Z,11.50
2023-04-11T12:16:16.305Z,7.10
2023-04-11T12:18:45.519Z,6.80
2023-04-11T12:21:13.772Z,7.00
2023-04-11T12:23:41.712Z,13.87
2023-04-11T12:26:09.663Z,6.93
2023-04-11T12:28:38.288Z,8.37
2023-04-11T12:31:07.110Z,7.97
2023-04-11T12:33:36.629Z,5.43
2023-04-11T12:36:04.708Z,3.70
2023-04-11T12:38:33.704Z,2.90
2023-04-11T12:41:29.644Z,7.47
2023-04-11T12:43:50.081Z,2.50
2023-04-11T12:46:19.526Z,2.77
2023-04-11T12:48:48.999Z,6.93
2023-04-11T12:51:17.152Z,11.47
2023-04-11T12:53:45.204Z,4.93
2023-04-11T12:56:13.478Z,4.43
2023-04-11T12:58:41.475Z,3.03
2023-04-11T13:01:09.501Z,7.47
2023-04-11T13:03:38.331Z,4.23
2023-04-11T13:06:08.854Z,3.90
2023-04-11T13:08:37.835Z,4.60
2023-04-11T13:11:06.159Z,3.70
2023-04-11T13:13:34.365Z,3.73
2023-04-11T13:16:02.398Z,3.83
2023-04-11T13:18:30.400Z,5.03
2023-04-11T13:20:58.405Z,3.33
2023-04-11T13:23:27.784Z,5.10
2023-04-11T13:25:55.748Z,10.60
2023-04-11T13:28:23.942Z,5.60
2023-04-11T13:30:52.112Z,3.10
2023-04-11T13:33:20.341Z,7.03
2023-04-11T13:35:48.389Z,3.30
2023-04-11T13:38:16.347Z,3.90
2023-04-11T13:40:45.679Z,3.40
2023-04-11T13:43:13.614Z,6.23
2023-04-11T13:45:41.797Z,3.90
2023-04-11T13:48:09.918Z,2.47
2023-04-11T13:50:39.306Z,4.47
2023-04-11T13:53:07.264Z,3.27
2023-04-11T13:55:35.641Z,4.30
2023-04-11T13:58:04.963Z,5.97
2023-04-11T14:00:36.130Z,3.57
2023-04-11T14:03:04.398Z,3.50
2023-04-11T14:05:35.419Z,3.63
2023-04-11T14:08:04.255Z,3.47
2023-04-11T14:10:35.197Z,4.77
2023-04-11T14:13:05.386Z,3.63
2023-04-11T14:15:33.518Z,4.30
2023-04-11T14:18:01.922Z,8.80
2023-04-11T14:20:29.977Z,11.70
2023-04-11T14:22:58.131Z,11.07
2023-04-11T14:25:26.394Z,4.70
2023-04-11T14:27:54.380Z,8.13
2023-04-11T14:30:23.889Z,3.37
2023-04-11T14:32:51.852Z,2.63
2023-04-11T14:35:19.841Z,3.17
2023-04-11T14:37:48.820Z,3.90
2023-04-11T14:40:17.337Z,3.33
2023-04-11T14:42:45.834Z,3.63
2023-04-11T14:45:13.831Z,3.20
2023-04-11T14:47:43.417Z,5.83
2023-04-11T14:50:12.339Z,4.97
2023-04-11T14:52:40.261Z,3.23
2023-04-11T14:55:09.455Z,4.23
2023-04-11T14:57:46.302Z,3.10
2023-04-11T15:00:19.570Z,3.50
2023-04-11T15:02:51.862Z,3.80
2023-04-11T15:05:20.216Z,4.53
2023-04-11T15:07:49.602Z,3.20
2023-04-11T15:10:19.633Z,2.80
2023-04-11T15:12:47.911Z,6.07
2023-04-11T15:15:16.497Z,5.27
2023-04-11T15:17:47.054Z,4.20
2023-04-11T15:20:17.446Z,5.50
2023-04-11T15:22:46.843Z,3.53
2023-04-11T15:25:16.389Z,5.13
2023-04-11T15:27:44.463Z,3.73
2023-04-11T15:30:13.031Z,3.83
2023-04-11T15:32:44.061Z,6.80
2023-04-11T15:35:12.178Z,3.43
2023-04-11T15:37:41.983Z,4.00
2023-04-11T15:40:12.369Z,3.30
2023-04-11T15:42:40.838Z,3.73
2023-04-11T15:45:09.588Z,4.73
2023-04-11T15:47:37.580Z,3.10
2023-04-11T15:50:06.334Z,2.77
2023-04-11T15:52:34.353Z,2.80
2023-04-11T15:55:03.752Z,2.70
2023-04-11T15:57:31.708Z,2.63
2023-04-11T15:59:59.911Z,1.93
2023-04-11T16:02:28.351Z,2.40
2023-04-11T16:04:58.587Z,3.60
2023-04-11T16:07:26.980Z,3.10
2023-04-11T16:09:55.580Z,4.20
2023-04-11T16:12:24.880Z,2.20
2023-04-11T16:14:52.825Z,2.90
2023-04-11T16:17:20.905Z,4.70
2023-04-11T16:19:51.987Z,5.20
2023-04-11T16:22:20.807Z,8.60
2023-04-11T16:24:48.764Z,3.97
2023-04-11T16:27:16.731Z,3.53
2023-04-11T16:29:46.049Z,3.30
2023-04-11T16:32:14.099Z,3.90
2023-04-11T16:34:42.336Z,3.50
2023-04-11T16:37:10.427Z,4.93
2023-04-11T16:39:38.465Z,3.47
2023-04-11T16:42:06.759Z,3.50
2023-04-11T16:44:34.696Z,4.73
2023-04-11T16:47:04.190Z,3.57
2023-04-11T16:49:32.639Z,2.83
2023-04-11T16:52:00.724Z,6.57
2023-04-11T16:54:28.639Z,6.17
2023-04-11T16:56:56.928Z,3.53
2023-04-11T16:59:26.064Z,2.63
2023-04-11T17:01:54.512Z,3.80
2023-04-11T17:04:24.224Z,4.40
2023-04-11T17:06:52.426Z,2.20
2023-04-11T17:09:20.385Z,5.13
2023-04-11T17:11:48.293Z,3.90
2023-04-11T17:14:16.343Z,4.23
2023-04-11T17:16:46.056Z,2.50
2023-04-11T17:19:14.176Z,5.17
2023-04-11T17:21:43.486Z,4.80
2023-04-11T17:24:11.933Z,6.93
2023-04-11T17:26:39.969Z,3.70
2023-04-11T17:29:10.667Z,5.20
2023-04-11T17:31:38.702Z,6.53
2023-04-11T17:34:07.099Z,4.33
2023-04-11T17:36:42.286Z,5.10
2023-04-11T17:39:17.331Z,5.53
2023-04-11T17:41:46.018Z,9.13
2023-04-11T17:44:14.304Z,3.30
2023-04-11T17:46:42.332Z,10.10
2023-04-11T17:49:10.398Z,7.83
2023-04-11T17:51:42.985Z,4.33
2023-04-11T17:54:18.369Z,3.80
2023-04-11T17:56:46.857Z,2.93
2023-04-11T17:59:16.949Z,3.50
2023-04-11T18:01:46.953Z,4.20
2023-04-11T18:04:15.903Z,2.83
2023-04-11T18:06:46.637Z,3.33
2023-04-11T18:09:15.582Z,7.63
2023-04-11T18:11:44.936Z,5.13
2023-04-11T18:14:13.085Z,7.83
2023-04-11T18:16:41.212Z,7.63
2023-04-11T18:19:09.247Z,7.27
2023-04-11T18:21:37.228Z,7.30
2023-04-11T18:24:05.599Z,6.40
2023-04-11T18:26:33.563Z,7.07
2023-04-11T18:29:03.943Z,6.77
2023-04-11T18:31:34.914Z,9.53
2023-04-11T18:34:03.899Z,4.27
2023-04-11T18:36:33.065Z,6.47
2023-04-11T18:39:01.139Z,5.80
2023-04-11T18:41:29.092Z,11.77
2023-04-11T18:43:57.702Z,6.60
2023-04-11T18:46:27.323Z,7.70
2023-04-11T18:48:55.426Z,13.10
2023-04-11T18:51:23.452Z,11.13
2023-04-11T18:53:52.601Z,6.30
2023-04-11T18:56:20.955Z,19.07
2023-04-11T18:58:52.550Z,11.10
2023-04-11T19:01:23.687Z,12.13
2023-04-11T19:03:55.155Z,8.83
2023-04-11T19:06:23.803Z,12.13
2023-04-11T19:08:52.050Z,8.00
2023-04-11T19:11:20.189Z,10.43
2023-04-11T19:13:48.258Z,9.27
2023-04-11T19:16:16.544Z,5.40
2023-04-11T19:18:44.587Z,8.07
2023-04-11T19:21:14.132Z,23.63
2023-04-11T19:23:42.086Z,17.27
2023-04-11T19:26:10.135Z,13.50
2023-04-11T19:28:38.056Z,8.70
2023-04-11T19:31:06.625Z,10.30
2023-04-11T19:33:36.038Z,14.73
2023-04-11T19:36:04.804Z,8.20
2023-04-11T19:38:34.694Z,7.30
2023-04-11T19:41:11.728Z,6.63
2023-04-11T19:43:39.880Z,12.40
2023-04-11T19:46:08.069Z,7.93
2023-04-11T19:48:36.374Z,7.30
2023-04-11T19:51:04.460Z,4.77
2023-04-11T19:53:34.974Z,6.67
2023-04-11T19:56:04.016Z,4.70
2023-04-11T19:58:32.599Z,5.00
2023-04-11T20:01:01.103Z,10.33
2023-04-11T20:03:29.241Z,10.00
2023-04-11T20:05:58.172Z,4.10
2023-04-11T20:08:27.434Z,10.07
2023-04-11T20:10:56.855Z,8.10
2023-04-11T20:13:24.951Z,8.00
2023-04-11T20:15:52.975Z,10.50
2023-04-11T20:18:20.963Z,8.70
2023-04-11T20:20:49.051Z,11.40
2023-04-11T20:23:17.053Z,7.30
2023-04-11T20:25:45.658Z,8.80
2023-04-11T20:28:15.058Z,5.57
2023-04-11T20:30:43.150Z,7.87
2023-04-11T20:33:11.223Z,7.33
2023-04-11T20:35:39.299Z,8.30
2023-04-11T20:38:07.282Z,6.73
2023-04-11T20:40:35.733Z,8.90
2023-04-11T20:43:03.658Z,7.37
2023-04-11T20:45:33.921Z,7.43
2023-04-11T20:48:02.120Z,10.40
2023-04-11T20:50:33.150Z,6.90
2023-04-11T20:53:02.278Z,9.70
2023-04-11T20:55:30.677Z,8.40
2023-04-11T20:57:58.646Z,6.97
2023-04-11T21:00:27.095Z,8.67
2023-04-11T21:02:56.555Z,8.07
2023-04-11T21:05:24.756Z,10.00
2023-04-11T21:07:54.292Z,8.00
2023-04-11T21:10:22.449Z,7.47
2023-04-11T21:12:53.626Z,9.23
2023-04-11T21:15:22.313Z,7.83
2023-04-11T21:17:50.552Z,10.43
2023-04-11T21:20:20.913Z,9.70
2023-04-11T21:22:50.445Z,6.00
2023-04-11T21:25:18.406Z,6.80
2023-04-11T21:27:47.010Z,6.40
2023-04-11T21:30:15.734Z,6.57
2023-04-11T21:32:43.774Z,7.20
2023-04-11T21:35:13.136Z,5.30
2023-04-11T21:37:42.523Z,7.43
2023-04-11T21:40:12.623Z,6.17
2023-04-11T21:42:40.894Z,16.57
2023-04-11T21:45:09.909Z,6.97
2023-04-11T21:47:38.011Z,8.13
2023-04-11T21:50:07.002Z,8.20
2023-04-11T21:52:35.012Z,13.00
2023-04-11T21:55:07.211Z,6.77
2023-04-11T21:57:36.741Z,7.93
2023-04-11T22:00:05.963Z,8.50
2023-04-11T22:02:34.127Z,9.70
2023-04-11T22:05:06.469Z,10.93
2023-04-11T22:07:39.408Z,7.43
2023-04-11T22:10:12.458Z,9.37
2023-04-11T22:12:40.575Z,8.10
2023-04-11T22:15:12.320Z,13.03
2023-04-11T22:17:41.691Z,7.57
2023-04-11T22:20:11.169Z,6.17
2023-04-11T22:22:39.203Z,7.53
2023-04-11T22:25:09.965Z,8.30
2023-04-11T22:27:38.471Z,7.37
2023-04-11T22:30:08.755Z,6.30
2023-04-11T22:32:37.057Z,8.30
2023-04-11T22:35:06.849Z,7.20
2023-04-11T22:37:34.917Z,7.37
2023-04-11T22:40:06.083Z,6.17
2023-04-11T22:42:36.808Z,10.70
2023-04-11T22:45:05.072Z,8.33
2023-04-11T22:47:34.424Z,7.07
2023-04-11T22:50:03.415Z,11.30
2023-04-11T22:52:31.395Z,10.87
2023-04-11T22:54:59.470Z,7.50
2023-04-11T22:57:27.399Z,7.97
2023-04-11T22:59:56.709Z,6.50
2023-04-11T23:02:25.293Z,12.03
2023-04-11T23:04:53.616Z,6.50
2023-04-11T23:07:22.280Z,8.60
2023-04-11T23:09:52.533Z,11.10
2023-04-11T23:12:20.958Z,7.77
2023-04-11T23:14:50.340Z,6.37
2023-04-11T23:17:19.745Z,11.63
2023-04-11T23:19:48.104Z,6.30
2023-04-11T23:22:16.283Z,8.40
2023-04-11T23:24:44.430Z,9.10
2023-04-11T23:27:12.837Z,8.23
2023-04-11T23:29:40.841Z,6.53
2023-04-11T23:32:09.353Z,9.10
2023-04-11T23:34:38.724Z,6.97
2023-04-11T23:37:07.788Z,10.03
2023-04-11T23:39:36.456Z,5.60
2023-04-11T23:42:04.520Z,6.97
2023-04-11T23:44:32.480Z,7.00
2023-04-11T23:47:00.521Z,8.47
2023-04-11T23:49:28.642Z,6.73
2023-04-11T23:51:58.173Z,7.40
2023-04-11T23:54:29.567Z,11.83
2023-04-11T23:56:58.410Z,9.27
2023-04-11T23:59:27.051Z,12.00
